Terminal Aerodrome Forecast
Issued by NWS

Home | Current Version | Previous Version | Text Only | Print | Product List | Glossary On
Versions: 1 2 3 4 5 6 7 8 9 10 11 12
379
FTUS45 KPIH 301722
TAFSUN
TAF
KSUN 301722Z 3018/0118 11006KT P6SM VCSH SCT050 BKN100
     FM302000 12010KT P6SM -SHRA VCTS SCT040CB OVC080
     FM010300 33010KT P6SM SCT050 BKN100
     FM010800 33011KT P6SM SCT050=

USA.gov is the U.S. government's official web portal to all federal, state and local government web resources and services.